sensor_id;sensor_type;location;lat;lon;timestamp;P1;durP1;ratioP1;P2;durP2;ratioP2
13592;SDS011;6867;50.998;4.250;2023-03-31T00:02:11;11.40;;;2.50;;
13592;SDS011;6867;50.998;4.250;2023-03-31T00:04:38;12.00;;;2.73;;
13592;SDS011;6867;50.998;4.250;2023-03-31T00:07:09;12.17;;;3.00;;
13592;SDS011;6867;50.998;4.250;2023-03-31T00:09:37;9.23;;;1.87;;
13592;SDS011;6867;50.998;4.250;2023-03-31T00:12:05;17.87;;;2.90;;
13592;SDS011;6867;50.998;4.250;2023-03-31T00:14:33;10.97;;;3.40;;
13592;SDS011;6867;50.998;4.250;2023-03-31T00:17:00;16.67;;;3.63;;
13592;SDS011;6867;50.998;4.250;2023-03-31T00:19:28;14.30;;;2.60;;
13592;SDS011;6867;50.998;4.250;2023-03-31T00:21:57;20.83;;;3.67;;
13592;SDS011;6867;50.998;4.250;2023-03-31T00:24:26;15.20;;;2.60;;
13592;SDS011;6867;50.998;4.250;2023-03-31T00:26:56;11.20;;;2.87;;
13592;SDS011;6867;50.998;4.250;2023-03-31T00:29:23;14.60;;;2.40;;
13592;SDS011;6867;50.998;4.250;2023-03-31T00:31:52;8.93;;;2.73;;
13592;SDS011;6867;50.998;4.250;2023-03-31T00:34:19;11.77;;;2.80;;
13592;SDS011;6867;50.998;4.250;2023-03-31T00:36:45;14.53;;;3.40;;
13592;SDS011;6867;50.998;4.250;2023-03-31T00:39:13;18.17;;;2.73;;
13592;SDS011;6867;50.998;4.250;2023-03-31T00:41:42;11.37;;;2.90;;
13592;SDS011;6867;50.998;4.250;2023-03-31T00:44:10;13.90;;;2.73;;
13592;SDS011;6867;50.998;4.250;2023-03-31T00:46:40;10.70;;;2.40;;
13592;SDS011;6867;50.998;4.250;2023-03-31T00:49:18;9.43;;;2.30;;
13592;SDS011;6867;50.998;4.250;2023-03-31T00:51:51;8.80;;;2.10;;
13592;SDS011;6867;50.998;4.250;2023-03-31T00:54:22;9.83;;;2.50;;
13592;SDS011;6867;50.998;4.250;2023-03-31T00:56:51;6.93;;;1.67;;
13592;SDS011;6867;50.998;4.250;2023-03-31T00:59:23;7.13;;;2.03;;
13592;SDS011;6867;50.998;4.250;2023-03-31T01:01:53;12.40;;;2.23;;
13592;SDS011;6867;50.998;4.250;2023-03-31T01:04:24;11.33;;;2.00;;
13592;SDS011;6867;50.998;4.250;2023-03-31T01:06:54;11.43;;;2.37;;
13592;SDS011;6867;50.998;4.250;2023-03-31T01:09:25;10.60;;;1.97;;
13592;SDS011;6867;50.998;4.250;2023-03-31T01:11:59;8.77;;;1.97;;
13592;SDS011;6867;50.998;4.250;2023-03-31T01:14:28;11.50;;;2.47;;
13592;SDS011;6867;50.998;4.250;2023-03-31T01:16:56;13.37;;;2.90;;
13592;SDS011;6867;50.998;4.250;2023-03-31T01:19:26;11.63;;;2.27;;
13592;SDS011;6867;50.998;4.250;2023-03-31T01:25:15;16.30;;;2.60;;
13592;SDS011;6867;50.998;4.250;2023-03-31T01:28:21;11.87;;;2.60;;
13592;SDS011;6867;50.998;4.250;2023-03-31T01:34:18;8.77;;;2.53;;
13592;SDS011;6867;50.998;4.250;2023-03-31T01:37:24;7.80;;;2.40;;
13592;SDS011;6867;50.998;4.250;2023-03-31T01:43:15;10.83;;;2.57;;
13592;SDS011;6867;50.998;4.250;2023-03-31T01:45:51;6.77;;;2.40;;
13592;SDS011;6867;50.998;4.250;2023-03-31T01:48:26;5.27;;;2.20;;
13592;SDS011;6867;50.998;4.250;2023-03-31T01:51:04;12.70;;;2.47;;
13592;SDS011;6867;50.998;4.250;2023-03-31T01:53:38;10.00;;;2.60;;
13592;SDS011;6867;50.998;4.250;2023-03-31T01:56:16;10.27;;;3.20;;
13592;SDS011;6867;50.998;4.250;2023-03-31T01:58:48;18.83;;;3.70;;
13592;SDS011;6867;50.998;4.250;2023-03-31T02:01:20;10.50;;;3.27;;
13592;SDS011;6867;50.998;4.250;2023-03-31T02:03:52;11.83;;;3.77;;
13592;SDS011;6867;50.998;4.250;2023-03-31T02:06:22;9.77;;;3.50;;
13592;SDS011;6867;50.998;4.250;2023-03-31T02:08:56;10.57;;;3.00;;
13592;SDS011;6867;50.998;4.250;2023-03-31T02:11:28;12.00;;;3.00;;
13592;SDS011;6867;50.998;4.250;2023-03-31T02:13:57;9.20;;;2.73;;
13592;SDS011;6867;50.998;4.250;2023-03-31T02:16:26;7.53;;;2.03;;
13592;SDS011;6867;50.998;4.250;2023-03-31T02:18:56;10.23;;;2.40;;
13592;SDS011;6867;50.998;4.250;2023-03-31T02:21:27;6.27;;;2.10;;
13592;SDS011;6867;50.998;4.250;2023-03-31T02:23:55;9.00;;;2.30;;
13592;SDS011;6867;50.998;4.250;2023-03-31T02:26:24;5.23;;;1.63;;
13592;SDS011;6867;50.998;4.250;2023-03-31T02:28:56;8.30;;;1.80;;
13592;SDS011;6867;50.998;4.250;2023-03-31T02:31:25;9.70;;;1.97;;
13592;SDS011;6867;50.998;4.250;2023-03-31T02:33:54;10.77;;;2.00;;
13592;SDS011;6867;50.998;4.250;2023-03-31T02:36:21;10.53;;;1.80;;
13592;SDS011;6867;50.998;4.250;2023-03-31T02:38:50;11.20;;;1.97;;
13592;SDS011;6867;50.998;4.250;2023-03-31T02:41:20;8.43;;;1.73;;
13592;SDS011;6867;50.998;4.250;2023-03-31T02:43:47;4.47;;;1.87;;
13592;SDS011;6867;50.998;4.250;2023-03-31T02:46:15;4.57;;;1.90;;
13592;SDS011;6867;50.998;4.250;2023-03-31T02:48:43;9.40;;;2.13;;
13592;SDS011;6867;50.998;4.250;2023-03-31T02:57:04;7.83;;;1.90;;
13592;SDS011;6867;50.998;4.250;2023-03-31T02:59:48;8.97;;;2.13;;
13592;SDS011;6867;50.998;4.250;2023-03-31T03:02:29;11.37;;;1.80;;
13592;SDS011;6867;50.998;4.250;2023-03-31T03:05:11;10.07;;;2.03;;
13592;SDS011;6867;50.998;4.250;2023-03-31T03:07:52;11.43;;;2.00;;
13592;SDS011;6867;50.998;4.250;2023-03-31T03:10:29;9.63;;;1.77;;
13592;SDS011;6867;50.998;4.250;2023-03-31T03:13:07;10.03;;;2.10;;
13592;SDS011;6867;50.998;4.250;2023-03-31T03:15:40;7.43;;;2.40;;
13592;SDS011;6867;50.998;4.250;2023-03-31T03:18:13;11.67;;;2.90;;
13592;SDS011;6867;50.998;4.250;2023-03-31T03:20:41;6.13;;;1.93;;
13592;SDS011;6867;50.998;4.250;2023-03-31T03:23:12;4.63;;;1.53;;
13592;SDS011;6867;50.998;4.250;2023-03-31T03:25:39;7.10;;;2.40;;
13592;SDS011;6867;50.998;4.250;2023-03-31T03:28:06;3.40;;;1.43;;
13592;SDS011;6867;50.998;4.250;2023-03-31T03:30:33;10.27;;;2.80;;
13592;SDS011;6867;50.998;4.250;2023-03-31T03:32:59;10.37;;;2.63;;
13592;SDS011;6867;50.998;4.250;2023-03-31T03:35:28;5.83;;;2.63;;
13592;SDS011;6867;50.998;4.250;2023-03-31T03:37:55;6.97;;;2.27;;
13592;SDS011;6867;50.998;4.250;2023-03-31T03:40:22;11.03;;;2.27;;
13592;SDS011;6867;50.998;4.250;2023-03-31T03:42:48;7.00;;;1.70;;
13592;SDS011;6867;50.998;4.250;2023-03-31T03:45:15;6.53;;;1.70;;
13592;SDS011;6867;50.998;4.250;2023-03-31T03:47:42;4.13;;;1.50;;
13592;SDS011;6867;50.998;4.250;2023-03-31T03:50:09;5.60;;;1.30;;
13592;SDS011;6867;50.998;4.250;2023-03-31T03:52:39;3.50;;;0.87;;
13592;SDS011;6867;50.998;4.250;2023-03-31T03:55:06;3.50;;;0.77;;
13592;SDS011;6867;50.998;4.250;2023-03-31T03:57:33;5.97;;;1.20;;
13592;SDS011;6867;50.998;4.250;2023-03-31T04:00:00;4.43;;;0.93;;
13592;SDS011;6867;50.998;4.250;2023-03-31T04:02:32;2.00;;;1.10;;
13592;SDS011;6867;50.998;4.250;2023-03-31T04:04:59;1.70;;;0.90;;
13592;SDS011;6867;50.998;4.250;2023-03-31T04:07:26;3.87;;;1.53;;
13592;SDS011;6867;50.998;4.250;2023-03-31T04:09:54;4.53;;;1.40;;
13592;SDS011;6867;50.998;4.250;2023-03-31T04:12:20;5.47;;;1.20;;
13592;SDS011;6867;50.998;4.250;2023-03-31T04:14:47;5.00;;;1.20;;
13592;SDS011;6867;50.998;4.250;2023-03-31T04:17:14;4.17;;;1.33;;
13592;SDS011;6867;50.998;4.250;2023-03-31T04:19:40;2.60;;;1.20;;
13592;SDS011;6867;50.998;4.250;2023-03-31T04:22:07;2.67;;;1.03;;
13592;SDS011;6867;50.998;4.250;2023-03-31T04:24:35;5.80;;;1.30;;
13592;SDS011;6867;50.998;4.250;2023-03-31T04:27:04;3.93;;;0.90;;
13592;SDS011;6867;50.998;4.250;2023-03-31T04:29:31;1.47;;;0.80;;
13592;SDS011;6867;50.998;4.250;2023-03-31T04:32:01;2.13;;;0.80;;
13592;SDS011;6867;50.998;4.250;2023-03-31T04:34:28;1.30;;;0.67;;
13592;SDS011;6867;50.998;4.250;2023-03-31T04:36:59;1.37;;;0.60;;
13592;SDS011;6867;50.998;4.250;2023-03-31T04:39:27;3.23;;;0.83;;
13592;SDS011;6867;50.998;4.250;2023-03-31T04:41:55;4.90;;;0.80;;
13592;SDS011;6867;50.998;4.250;2023-03-31T04:44:24;3.97;;;0.73;;
13592;SDS011;6867;50.998;4.250;2023-03-31T04:46:51;3.43;;;0.73;;
13592;SDS011;6867;50.998;4.250;2023-03-31T04:49:18;4.17;;;0.90;;
13592;SDS011;6867;50.998;4.250;2023-03-31T04:51:44;4.10;;;0.87;;
13592;SDS011;6867;50.998;4.250;2023-03-31T04:54:11;5.20;;;1.37;;
13592;SDS011;6867;50.998;4.250;2023-03-31T04:56:38;7.20;;;1.30;;
13592;SDS011;6867;50.998;4.250;2023-03-31T04:59:05;3.90;;;0.90;;
13592;SDS011;6867;50.998;4.250;2023-03-31T05:01:33;7.47;;;1.50;;
13592;SDS011;6867;50.998;4.250;2023-03-31T05:04:01;2.77;;;1.57;;
13592;SDS011;6867;50.998;4.250;2023-03-31T05:06:28;7.67;;;2.13;;
13592;SDS011;6867;50.998;4.250;2023-03-31T05:08:55;6.37;;;2.20;;
13592;SDS011;6867;50.998;4.250;2023-03-31T05:11:23;7.97;;;2.67;;
13592;SDS011;6867;50.998;4.250;2023-03-31T05:13:51;8.73;;;2.63;;
13592;SDS011;6867;50.998;4.250;2023-03-31T05:16:18;9.10;;;3.23;;
13592;SDS011;6867;50.998;4.250;2023-03-31T05:18:46;6.40;;;2.20;;
13592;SDS011;6867;50.998;4.250;2023-03-31T05:21:13;12.73;;;3.27;;
13592;SDS011;6867;50.998;4.250;2023-03-31T05:23:41;10.50;;;2.83;;
13592;SDS011;6867;50.998;4.250;2023-03-31T05:26:09;10.33;;;2.50;;
13592;SDS011;6867;50.998;4.250;2023-03-31T05:28:36;12.10;;;2.70;;
13592;SDS011;6867;50.998;4.250;2023-03-31T05:31:03;11.47;;;2.97;;
13592;SDS011;6867;50.998;4.250;2023-03-31T05:33:31;6.77;;;3.10;;
13592;SDS011;6867;50.998;4.250;2023-03-31T05:35:59;6.67;;;2.57;;
13592;SDS011;6867;50.998;4.250;2023-03-31T05:38:26;11.13;;;3.27;;
13592;SDS011;6867;50.998;4.250;2023-03-31T05:40:55;7.97;;;2.23;;
13592;SDS011;6867;50.998;4.250;2023-03-31T05:43:22;9.70;;;2.40;;
13592;SDS011;6867;50.998;4.250;2023-03-31T05:45:49;13.43;;;3.80;;
13592;SDS011;6867;50.998;4.250;2023-03-31T05:48:15;13.27;;;2.73;;
13592;SDS011;6867;50.998;4.250;2023-03-31T05:50:42;11.83;;;2.87;;
13592;SDS011;6867;50.998;4.250;2023-03-31T05:53:10;11.17;;;2.90;;
13592;SDS011;6867;50.998;4.250;2023-03-31T05:55:37;15.43;;;2.90;;
13592;SDS011;6867;50.998;4.250;2023-03-31T05:58:04;17.30;;;3.13;;
13592;SDS011;6867;50.998;4.250;2023-03-31T06:00:31;11.37;;;2.90;;
13592;SDS011;6867;50.998;4.250;2023-03-31T06:02:57;13.13;;;3.20;;
13592;SDS011;6867;50.998;4.250;2023-03-31T06:05:24;16.00;;;3.13;;
13592;SDS011;6867;50.998;4.250;2023-03-31T06:07:51;11.30;;;3.13;;
13592;SDS011;6867;50.998;4.250;2023-03-31T06:10:20;15.97;;;2.90;;
13592;SDS011;6867;50.998;4.250;2023-03-31T06:12:46;11.43;;;2.73;;
13592;SDS011;6867;50.998;4.250;2023-03-31T06:15:13;13.87;;;3.17;;
13592;SDS011;6867;50.998;4.250;2023-03-31T06:17:40;15.67;;;2.83;;
13592;SDS011;6867;50.998;4.250;2023-03-31T06:20:07;16.23;;;3.67;;
13592;SDS011;6867;50.998;4.250;2023-03-31T06:22:34;17.33;;;3.60;;
13592;SDS011;6867;50.998;4.250;2023-03-31T06:25:01;22.57;;;4.20;;
13592;SDS011;6867;50.998;4.250;2023-03-31T06:27:29;12.17;;;3.10;;
13592;SDS011;6867;50.998;4.250;2023-03-31T06:29:55;9.33;;;2.80;;
13592;SDS011;6867;50.998;4.250;2023-03-31T06:32:22;11.63;;;3.00;;
13592;SDS011;6867;50.998;4.250;2023-03-31T06:34:49;10.00;;;2.50;;
13592;SDS011;6867;50.998;4.250;2023-03-31T06:37:16;13.87;;;3.17;;
13592;SDS011;6867;50.998;4.250;2023-03-31T06:39:43;12.37;;;3.10;;
13592;SDS011;6867;50.998;4.250;2023-03-31T06:42:09;15.80;;;3.10;;
13592;SDS011;6867;50.998;4.250;2023-03-31T06:44:38;14.53;;;3.27;;
13592;SDS011;6867;50.998;4.250;2023-03-31T06:47:04;16.90;;;3.60;;
13592;SDS011;6867;50.998;4.250;2023-03-31T06:49:31;11.50;;;3.03;;
13592;SDS011;6867;50.998;4.250;2023-03-31T06:51:58;16.90;;;4.03;;
13592;SDS011;6867;50.998;4.250;2023-03-31T06:54:25;13.33;;;3.13;;
13592;SDS011;6867;50.998;4.250;2023-03-31T06:56:52;15.70;;;3.03;;
13592;SDS011;6867;50.998;4.250;2023-03-31T06:59:18;17.07;;;3.83;;
13592;SDS011;6867;50.998;4.250;2023-03-31T07:01:46;11.93;;;3.20;;
13592;SDS011;6867;50.998;4.250;2023-03-31T07:04:14;19.07;;;3.47;;
13592;SDS011;6867;50.998;4.250;2023-03-31T07:06:41;10.63;;;3.87;;
13592;SDS011;6867;50.998;4.250;2023-03-31T07:09:08;15.00;;;3.30;;
13592;SDS011;6867;50.998;4.250;2023-03-31T07:11:34;13.10;;;3.13;;
13592;SDS011;6867;50.998;4.250;2023-03-31T07:14:01;18.80;;;3.33;;
13592;SDS011;6867;50.998;4.250;2023-03-31T07:16:28;13.47;;;3.13;;
13592;SDS011;6867;50.998;4.250;2023-03-31T07:18:56;15.17;;;3.17;;
13592;SDS011;6867;50.998;4.250;2023-03-31T07:21:24;14.37;;;3.00;;
13592;SDS011;6867;50.998;4.250;2023-03-31T07:23:50;14.57;;;3.30;;
13592;SDS011;6867;50.998;4.250;2023-03-31T07:26:17;12.33;;;3.33;;
13592;SDS011;6867;50.998;4.250;2023-03-31T07:28:44;12.40;;;2.57;;
13592;SDS011;6867;50.998;4.250;2023-03-31T07:31:11;17.07;;;2.67;;
13592;SDS011;6867;50.998;4.250;2023-03-31T07:33:38;12.53;;;2.50;;
13592;SDS011;6867;50.998;4.250;2023-03-31T07:36:07;10.37;;;3.20;;
13592;SDS011;6867;50.998;4.250;2023-03-31T07:38:35;17.37;;;4.17;;
13592;SDS011;6867;50.998;4.250;2023-03-31T07:41:01;18.33;;;3.40;;
13592;SDS011;6867;50.998;4.250;2023-03-31T07:43:28;12.10;;;2.73;;
13592;SDS011;6867;50.998;4.250;2023-03-31T07:45:55;13.13;;;3.07;;
13592;SDS011;6867;50.998;4.250;2023-03-31T07:48:22;8.40;;;2.87;;
13592;SDS011;6867;50.998;4.250;2023-03-31T07:50:48;12.67;;;3.60;;
13592;SDS011;6867;50.998;4.250;2023-03-31T07:53:17;15.10;;;3.37;;
13592;SDS011;6867;50.998;4.250;2023-03-31T07:55:45;17.52;;;3.10;;
13592;SDS011;6867;50.998;4.250;2023-03-31T07:58:12;15.18;;;3.38;;
13592;SDS011;6867;50.998;4.250;2023-03-31T08:00:39;18.05;;;3.35;;
13592;SDS011;6867;50.998;4.250;2023-03-31T08:03:06;12.57;;;3.43;;
13592;SDS011;6867;50.998;4.250;2023-03-31T08:05:33;14.83;;;3.40;;
13592;SDS011;6867;50.998;4.250;2023-03-31T08:08:00;12.82;;;3.20;;
13592;SDS011;6867;50.998;4.250;2023-03-31T08:10:28;14.73;;;3.67;;
13592;SDS011;6867;50.998;4.250;2023-03-31T08:12:55;14.17;;;2.87;;
13592;SDS011;6867;50.998;4.250;2023-03-31T08:15:22;15.07;;;3.85;;
13592;SDS011;6867;50.998;4.250;2023-03-31T08:17:49;13.18;;;3.35;;
13592;SDS011;6867;50.998;4.250;2023-03-31T08:20:15;13.80;;;3.10;;
13592;SDS011;6867;50.998;4.250;2023-03-31T08:22:42;11.20;;;2.80;;
13592;SDS011;6867;50.998;4.250;2023-03-31T08:25:09;12.27;;;3.50;;
13592;SDS011;6867;50.998;4.250;2023-03-31T08:27:38;13.02;;;3.22;;
13592;SDS011;6867;50.998;4.250;2023-03-31T08:30:06;8.80;;;3.27;;
13592;SDS011;6867;50.998;4.250;2023-03-31T08:32:34;11.90;;;2.73;;
13592;SDS011;6867;50.998;4.250;2023-03-31T08:35:02;12.73;;;2.83;;
13592;SDS011;6867;50.998;4.250;2023-03-31T08:37:29;15.10;;;3.10;;
13592;SDS011;6867;50.998;4.250;2023-03-31T08:39:56;13.73;;;2.92;;
13592;SDS011;6867;50.998;4.250;2023-03-31T08:42:26;11.38;;;3.45;;
13592;SDS011;6867;50.998;4.250;2023-03-31T08:45:03;15.38;;;3.00;;
13592;SDS011;6867;50.998;4.250;2023-03-31T08:47:36;14.15;;;2.80;;
13592;SDS011;6867;50.998;4.250;2023-03-31T08:50:04;9.15;;;2.65;;
13592;SDS011;6867;50.998;4.250;2023-03-31T08:52:33;14.50;;;2.40;;
13592;SDS011;6867;50.998;4.250;2023-03-31T08:55:05;9.00;;;2.50;;
13592;SDS011;6867;50.998;4.250;2023-03-31T08:57:38;13.15;;;2.80;;
13592;SDS011;6867;50.998;4.250;2023-03-31T09:00:20;11.43;;;3.17;;
13592;SDS011;6867;50.998;4.250;2023-03-31T09:02:49;14.80;;;2.83;;
13592;SDS011;6867;50.998;4.250;2023-03-31T09:05:30;13.45;;;2.90;;
13592;SDS011;6867;50.998;4.250;2023-03-31T09:08:08;9.85;;;2.60;;
13592;SDS011;6867;50.998;4.250;2023-03-31T09:10:45;14.70;;;3.25;;
13592;SDS011;6867;50.998;4.250;2023-03-31T09:16:20;11.25;;;3.13;;
13592;SDS011;6867;50.998;4.250;2023-03-31T09:18:51;14.48;;;2.70;;
13592;SDS011;6867;50.998;4.250;2023-03-31T09:21:25;10.52;;;3.25;;
13592;SDS011;6867;50.998;4.250;2023-03-31T09:23:57;13.32;;;3.03;;
13592;SDS011;6867;50.998;4.250;2023-03-31T09:26:31;15.27;;;2.85;;
13592;SDS011;6867;50.998;4.250;2023-03-31T09:29:04;10.18;;;2.90;;
13592;SDS011;6867;50.998;4.250;2023-03-31T09:31:36;12.77;;;3.40;;
13592;SDS011;6867;50.998;4.250;2023-03-31T09:34:09;13.45;;;3.30;;
13592;SDS011;6867;50.998;4.250;2023-03-31T09:36:39;13.23;;;2.65;;
13592;SDS011;6867;50.998;4.250;2023-03-31T09:39:07;16.50;;;3.28;;
13592;SDS011;6867;50.998;4.250;2023-03-31T09:41:37;15.02;;;3.28;;
13592;SDS011;6867;50.998;4.250;2023-03-31T09:44:09;14.65;;;3.28;;
13592;SDS011;6867;50.998;4.250;2023-03-31T09:46:48;12.57;;;3.47;;
13592;SDS011;6867;50.998;4.250;2023-03-31T09:49:17;13.07;;;2.90;;
13592;SDS011;6867;50.998;4.250;2023-03-31T09:51:47;10.13;;;3.17;;
13592;SDS011;6867;50.998;4.250;2023-03-31T09:54:23;9.73;;;2.97;;
13592;SDS011;6867;50.998;4.250;2023-03-31T09:56:55;17.02;;;4.05;;
13592;SDS011;6867;50.998;4.250;2023-03-31T09:59:22;12.10;;;2.97;;
13592;SDS011;6867;50.998;4.250;2023-03-31T10:01:57;14.88;;;3.63;;
13592;SDS011;6867;50.998;4.250;2023-03-31T10:04:27;14.70;;;3.35;;
13592;SDS011;6867;50.998;4.250;2023-03-31T10:06:55;14.93;;;3.40;;
13592;SDS011;6867;50.998;4.250;2023-03-31T10:09:23;21.73;;;4.17;;
13592;SDS011;6867;50.998;4.250;2023-03-31T10:11:53;15.60;;;3.33;;
13592;SDS011;6867;50.998;4.250;2023-03-31T10:14:25;15.53;;;3.70;;
13592;SDS011;6867;50.998;4.250;2023-03-31T10:17:01;12.83;;;3.70;;
13592;SDS011;6867;50.998;4.250;2023-03-31T10:19:31;15.88;;;3.03;;
13592;SDS011;6867;50.998;4.250;2023-03-31T10:22:00;13.38;;;3.33;;
13592;SDS011;6867;50.998;4.250;2023-03-31T10:24:35;17.20;;;3.38;;
13592;SDS011;6867;50.998;4.250;2023-03-31T10:27:03;14.70;;;3.45;;
13592;SDS011;6867;50.998;4.250;2023-03-31T10:29:32;19.90;;;3.30;;
13592;SDS011;6867;50.998;4.250;2023-03-31T10:32:07;12.73;;;3.80;;
13592;SDS011;6867;50.998;4.250;2023-03-31T10:34:48;15.38;;;3.70;;
13592;SDS011;6867;50.998;4.250;2023-03-31T10:37:16;11.65;;;2.95;;
13592;SDS011;6867;50.998;4.250;2023-03-31T10:39:45;14.93;;;3.17;;
13592;SDS011;6867;50.998;4.250;2023-03-31T10:42:17;14.20;;;3.42;;
13592;SDS011;6867;50.998;4.250;2023-03-31T10:44:46;12.95;;;3.17;;
13592;SDS011;6867;50.998;4.250;2023-03-31T10:47:18;7.72;;;2.42;;
13592;SDS011;6867;50.998;4.250;2023-03-31T10:49:47;15.05;;;3.08;;
13592;SDS011;6867;50.998;4.250;2023-03-31T10:52:17;18.65;;;3.20;;
13592;SDS011;6867;50.998;4.250;2023-03-31T10:54:47;11.55;;;2.95;;
13592;SDS011;6867;50.998;4.250;2023-03-31T10:57:15;11.55;;;2.33;;
13592;SDS011;6867;50.998;4.250;2023-03-31T11:02:45;13.98;;;2.63;;
13592;SDS011;6867;50.998;4.250;2023-03-31T11:05:27;11.98;;;2.65;;
13592;SDS011;6867;50.998;4.250;2023-03-31T11:08:03;9.80;;;2.78;;
13592;SDS011;6867;50.998;4.250;2023-03-31T11:10:47;9.55;;;2.33;;
13592;SDS011;6867;50.998;4.250;2023-03-31T11:13:25;14.50;;;2.40;;
13592;SDS011;6867;50.998;4.250;2023-03-31T11:16:01;16.25;;;2.78;;
13592;SDS011;6867;50.998;4.250;2023-03-31T11:18:44;12.75;;;2.55;;
13592;SDS011;6867;50.998;4.250;2023-03-31T11:21:30;12.43;;;2.80;;
13592;SDS011;6867;50.998;4.250;2023-03-31T11:24:07;10.63;;;2.33;;
13592;SDS011;6867;50.998;4.250;2023-03-31T11:26:47;11.07;;;2.08;;
13592;SDS011;6867;50.998;4.250;2023-03-31T11:29:25;9.02;;;2.15;;
13592;SDS011;6867;50.998;4.250;2023-03-31T11:32:04;10.50;;;3.58;;
13592;SDS011;6867;50.998;4.250;2023-03-31T11:34:55;6.25;;;2.03;;
13592;SDS011;6867;50.998;4.250;2023-03-31T11:37:41;9.45;;;2.80;;
13592;SDS011;6867;50.998;4.250;2023-03-31T11:40:27;15.18;;;2.45;;
13592;SDS011;6867;50.998;4.250;2023-03-31T11:43:06;10.23;;;2.25;;
13592;SDS011;6867;50.998;4.250;2023-03-31T11:45:40;11.10;;;2.53;;
13592;SDS011;6867;50.998;4.250;2023-03-31T11:48:16;8.65;;;2.35;;
13592;SDS011;6867;50.998;4.250;2023-03-31T11:50:53;7.70;;;1.92;;
13592;SDS011;6867;50.998;4.250;2023-03-31T11:53:22;9.05;;;2.03;;
13592;SDS011;6867;50.998;4.250;2023-03-31T11:55:54;13.52;;;2.67;;
13592;SDS011;6867;50.998;4.250;2023-03-31T11:58:25;6.05;;;2.03;;
13592;SDS011;6867;50.998;4.250;2023-03-31T12:00:56;5.15;;;1.40;;
13592;SDS011;6867;50.998;4.250;2023-03-31T12:03:30;9.88;;;2.22;;
13592;SDS011;6867;50.998;4.250;2023-03-31T12:06:08;8.80;;;2.30;;
13592;SDS011;6867;50.998;4.250;2023-03-31T12:08:42;7.50;;;1.92;;
13592;SDS011;6867;50.998;4.250;2023-03-31T12:11:15;5.50;;;1.88;;
13592;SDS011;6867;50.998;4.250;2023-03-31T12:13:52;7.30;;;1.67;;
13592;SDS011;6867;50.998;4.250;2023-03-31T12:16:27;5.05;;;1.65;;
13592;SDS011;6867;50.998;4.250;2023-03-31T12:19:01;7.45;;;1.52;;
13592;SDS011;6867;50.998;4.250;2023-03-31T12:21:35;6.07;;;1.55;;
13592;SDS011;6867;50.998;4.250;2023-03-31T12:24:08;5.13;;;1.50;;
13592;SDS011;6867;50.998;4.250;2023-03-31T12:26:39;8.23;;;1.90;;
13592;SDS011;6867;50.998;4.250;2023-03-31T12:29:15;2.10;;;1.20;;
13592;SDS011;6867;50.998;4.250;2023-03-31T12:31:50;4.95;;;1.55;;
13592;SDS011;6867;50.998;4.250;2023-03-31T12:34:21;5.75;;;1.02;;
13592;SDS011;6867;50.998;4.250;2023-03-31T12:36:55;8.30;;;1.35;;
13592;SDS011;6867;50.998;4.250;2023-03-31T12:39:37;3.60;;;1.17;;
13592;SDS011;6867;50.998;4.250;2023-03-31T12:45:26;4.93;;;1.30;;
13592;SDS011;6867;50.998;4.250;2023-03-31T12:48:10;4.25;;;1.42;;
13592;SDS011;6867;50.998;4.250;2023-03-31T12:50:52;6.95;;;1.42;;
13592;SDS011;6867;50.998;4.250;2023-03-31T12:53:37;2.85;;;1.33;;
13592;SDS011;6867;50.998;4.250;2023-03-31T12:56:13;4.80;;;1.80;;
13592;SDS011;6867;50.998;4.250;2023-03-31T12:58:41;6.90;;;1.23;;
13592;SDS011;6867;50.998;4.250;2023-03-31T13:01:10;2.38;;;1.10;;
13592;SDS011;6867;50.998;4.250;2023-03-31T13:06:51;3.05;;;1.27;;
13592;SDS011;6867;50.998;4.250;2023-03-31T13:12:21;3.47;;;1.10;;
13592;SDS011;6867;50.998;4.250;2023-03-31T13:14:52;2.47;;;1.08;;
13592;SDS011;6867;50.998;4.250;2023-03-31T13:17:25;1.13;;;0.88;;
13592;SDS011;6867;50.998;4.250;2023-03-31T13:19:55;4.13;;;1.33;;
13592;SDS011;6867;50.998;4.250;2023-03-31T13:22:40;5.07;;;1.00;;
13592;SDS011;6867;50.998;4.250;2023-03-31T13:25:30;3.03;;;1.35;;
13592;SDS011;6867;50.998;4.250;2023-03-31T13:28:17;3.65;;;0.98;;
13592;SDS011;6867;50.998;4.250;2023-03-31T13:31:08;1.77;;;0.88;;
13592;SDS011;6867;50.998;4.250;2023-03-31T13:33:42;3.30;;;0.90;;
13592;SDS011;6867;50.998;4.250;2023-03-31T13:36:18;2.88;;;1.02;;
13592;SDS011;6867;50.998;4.250;2023-03-31T13:39:00;2.08;;;0.70;;
13592;SDS011;6867;50.998;4.250;2023-03-31T13:41:42;2.17;;;0.95;;
13592;SDS011;6867;50.998;4.250;2023-03-31T13:44:25;4.50;;;0.80;;
13592;SDS011;6867;50.998;4.250;2023-03-31T13:53:02;1.67;;;0.80;;
13592;SDS011;6867;50.998;4.250;2023-03-31T13:55:59;2.00;;;0.95;;
13592;SDS011;6867;50.998;4.250;2023-03-31T13:58:40;1.63;;;0.65;;
13592;SDS011;6867;50.998;4.250;2023-03-31T14:07:32;0.63;;;0.45;;
13592;SDS011;6867;50.998;4.250;2023-03-31T14:10:03;2.05;;;0.60;;
13592;SDS011;6867;50.998;4.250;2023-03-31T14:12:31;0.98;;;0.60;;
13592;SDS011;6867;50.998;4.250;2023-03-31T14:15:01;1.75;;;0.73;;
13592;SDS011;6867;50.998;4.250;2023-03-31T14:17:29;0.70;;;0.47;;
13592;SDS011;6867;50.998;4.250;2023-03-31T14:20:05;4.82;;;0.60;;
13592;SDS011;6867;50.998;4.250;2023-03-31T14:22:47;1.23;;;0.45;;
13592;SDS011;6867;50.998;4.250;2023-03-31T14:25:25;2.00;;;0.70;;
13592;SDS011;6867;50.998;4.250;2023-03-31T14:28:08;1.52;;;0.60;;
13592;SDS011;6867;50.998;4.250;2023-03-31T14:30:52;1.45;;;0.40;;
13592;SDS011;6867;50.998;4.250;2023-03-31T14:33:31;1.67;;;0.50;;
13592;SDS011;6867;50.998;4.250;2023-03-31T14:36:06;1.95;;;0.63;;
13592;SDS011;6867;50.998;4.250;2023-03-31T14:38:40;0.75;;;0.68;;
13592;SDS011;6867;50.998;4.250;2023-03-31T14:41:12;1.80;;;0.80;;
13592;SDS011;6867;50.998;4.250;2023-03-31T14:43:45;3.13;;;0.70;;
13592;SDS011;6867;50.998;4.250;2023-03-31T14:46:17;5.45;;;1.58;;
13592;SDS011;6867;50.998;4.250;2023-03-31T14:48:46;1.67;;;0.80;;
13592;SDS011;6867;50.998;4.250;2023-03-31T14:51:15;1.02;;;0.70;;
13592;SDS011;6867;50.998;4.250;2023-03-31T14:53:43;2.30;;;1.00;;
13592;SDS011;6867;50.998;4.250;2023-03-31T14:56:10;1.08;;;0.82;;
13592;SDS011;6867;50.998;4.250;2023-03-31T14:58:41;2.28;;;0.57;;
13592;SDS011;6867;50.998;4.250;2023-03-31T15:01:11;1.83;;;0.98;;
13592;SDS011;6867;50.998;4.250;2023-03-31T15:03:44;1.23;;;0.50;;
13592;SDS011;6867;50.998;4.250;2023-03-31T15:06:11;2.83;;;0.85;;
13592;SDS011;6867;50.998;4.250;2023-03-31T15:08:39;1.67;;;0.60;;
13592;SDS011;6867;50.998;4.250;2023-03-31T15:11:08;1.70;;;0.67;;
13592;SDS011;6867;50.998;4.250;2023-03-31T15:13:40;1.10;;;0.60;;
13592;SDS011;6867;50.998;4.250;2023-03-31T15:19:09;2.30;;;1.03;;
13592;SDS011;6867;50.998;4.250;2023-03-31T15:21:39;2.73;;;1.13;;
13592;SDS011;6867;50.998;4.250;2023-03-31T15:24:05;2.43;;;0.93;;
13592;SDS011;6867;50.998;4.250;2023-03-31T15:26:33;3.13;;;1.17;;
13592;SDS011;6867;50.998;4.250;2023-03-31T15:29:03;3.57;;;1.23;;
13592;SDS011;6867;50.998;4.250;2023-03-31T15:31:34;7.78;;;1.25;;
13592;SDS011;6867;50.998;4.250;2023-03-31T15:34:11;4.80;;;1.63;;
13592;SDS011;6867;50.998;4.250;2023-03-31T15:36:40;2.40;;;1.00;;
13592;SDS011;6867;50.998;4.250;2023-03-31T15:39:07;4.33;;;1.20;;
13592;SDS011;6867;50.998;4.250;2023-03-31T15:41:35;3.70;;;1.37;;
13592;SDS011;6867;50.998;4.250;2023-03-31T15:44:03;4.30;;;1.50;;
13592;SDS011;6867;50.998;4.250;2023-03-31T15:46:56;6.97;;;1.37;;
13592;SDS011;6867;50.998;4.250;2023-03-31T15:49:25;4.97;;;1.30;;
13592;SDS011;6867;50.998;4.250;2023-03-31T15:51:53;3.27;;;1.13;;
13592;SDS011;6867;50.998;4.250;2023-03-31T15:54:32;4.77;;;1.10;;
13592;SDS011;6867;50.998;4.250;2023-03-31T15:57:01;3.93;;;1.63;;
13592;SDS011;6867;50.998;4.250;2023-03-31T15:59:30;3.77;;;1.30;;
13592;SDS011;6867;50.998;4.250;2023-03-31T16:02:11;2.87;;;1.30;;
13592;SDS011;6867;50.998;4.250;2023-03-31T16:04:41;2.17;;;1.10;;
13592;SDS011;6867;50.998;4.250;2023-03-31T16:07:08;4.83;;;1.60;;